Terminal Aerodrome Forecast
Issued by NWS Dallas/Fort Worth, TX

Home | Current Version | Previous Version | Text Only | Print | Product List | Glossary On
Versions: 1 2 3 4 5 6 7 8 9 10 11 12 13 14 15 16 17 18 19 20 21 22 23 24 25 26 27
000
FTUS44 KFWD 202333
TAFDFW
TAF
KDFW 202333Z 2100/2206 17018KT P6SM FEW028
     FM210400 18015KT P6SM OVC015
      TEMPO 2104/2108 OVC009
     FM210800 17015KT 5SM -DZ BR OVC012
     FM211700 20020KT P6SM VCSH BKN025
     FM212000 22021KT P6SM BKN040
     FM212200 23018KT P6SM SCT050
     FM220300 25015KT P6SM SKC=

USA.gov is the U.S. government's official web portal to all federal, state and local government web resources and services.